sensor_id;sensor_type;location;lat;lon;timestamp;P1;P2;P0
42002;PMS7003;27693;50.506;30.832;2023-05-01T00:00:34;9.27;6.64;4.00
42002;PMS7003;27693;50.506;30.832;2023-05-01T00:01:38;7.50;5.60;4.00
42002;PMS7003;27693;50.506;30.832;2023-05-01T00:02:40;7.10;5.20;4.60
42002;PMS7003;27693;50.506;30.832;2023-05-01T00:03:43;7.40;7.10;6.80
42002;PMS7003;27693;50.506;30.832;2023-05-01T00:04:46;9.30;6.30;4.40
42002;PMS7003;27693;50.506;30.832;2023-05-01T00:05:48;7.91;4.55;4.00
42002;PMS7003;27693;50.506;30.832;2023-05-01T00:06:51;6.80;6.30;4.30
42002;PMS7003;27693;50.506;30.832;2023-05-01T00:07:54;8.90;7.70;6.10
42002;PMS7003;27693;50.506;30.832;2023-05-01T00:08:56;7.60;7.30;5.70
42002;PMS7003;27693;50.506;30.832;2023-05-01T00:09:58;11.40;8.50;7.40
42002;PMS7003;27693;50.506;30.832;2023-05-01T00:12:12;8.10;8.10;6.10
42002;PMS7003;27693;50.506;30.832;2023-05-01T00:13:15;10.60;8.70;6.30
42002;PMS7003;27693;50.506;30.832;2023-05-01T00:14:19;22.50;15.50;10.00
42002;PMS7003;27693;50.506;30.832;2023-05-01T00:15:21;9.90;7.20;6.10
42002;PMS7003;27693;50.506;30.832;2023-05-01T00:16:25;17.50;11.00;8.70
42002;PMS7003;27693;50.506;30.832;2023-05-01T00:17:28;18.30;14.00;9.90
42002;PMS7003;27693;50.506;30.832;2023-05-01T00:18:31;16.80;13.50;10.90
42002;PMS7003;27693;50.506;30.832;2023-05-01T00:19:34;13.40;10.70;8.00
42002;PMS7003;27693;50.506;30.832;2023-05-01T00:20:37;10.40;6.90;3.90
42002;PMS7003;27693;50.506;30.832;2023-05-01T00:21:40;11.90;9.50;7.80
42002;PMS7003;27693;50.506;30.832;2023-05-01T00:22:43;15.60;9.70;7.10
42002;PMS7003;27693;50.506;30.832;2023-05-01T00:23:45;11.70;10.60;8.60
42002;PMS7003;27693;50.506;30.832;2023-05-01T00:24:48;12.50;8.90;6.30
42002;PMS7003;27693;50.506;30.832;2023-05-01T00:25:51;10.70;9.90;7.10
42002;PMS7003;27693;50.506;30.832;2023-05-01T00:26:53;16.50;10.10;8.00
42002;PMS7003;27693;50.506;30.832;2023-05-01T00:27:56;14.70;8.90;6.50
42002;PMS7003;27693;50.506;30.832;2023-05-01T00:29:00;11.50;9.80;7.20
42002;PMS7003;27693;50.506;30.832;2023-05-01T00:30:03;10.70;9.80;7.70
42002;PMS7003;27693;50.506;30.832;2023-05-01T00:31:08;10.00;8.50;6.80
42002;PMS7003;27693;50.506;30.832;2023-05-01T00:32:10;11.20;9.70;7.70
42002;PMS7003;27693;50.506;30.832;2023-05-01T00:33:13;9.60;8.10;7.70
42002;PMS7003;27693;50.506;30.832;2023-05-01T00:34:16;10.40;10.40;8.00
42002;PMS7003;27693;50.506;30.832;2023-05-01T00:35:18;17.70;13.30;10.60
42002;PMS7003;27693;50.506;30.832;2023-05-01T00:36:22;13.20;9.40;7.50
42002;PMS7003;27693;50.506;30.832;2023-05-01T00:37:24;13.60;12.00;8.70
42002;PMS7003;27693;50.506;30.832;2023-05-01T00:38:28;14.90;11.00;8.90
42002;PMS7003;27693;50.506;30.832;2023-05-01T00:39:31;17.00;12.40;10.10
42002;PMS7003;27693;50.506;30.832;2023-05-01T00:40:40;14.10;11.70;9.40
42002;PMS7003;27693;50.506;30.832;2023-05-01T00:41:44;13.20;12.50;9.50
42002;PMS7003;27693;50.506;30.832;2023-05-01T00:42:46;14.50;11.80;10.90
42002;PMS7003;27693;50.506;30.832;2023-05-01T00:43:50;14.40;12.90;10.00
42002;PMS7003;27693;50.506;30.832;2023-05-01T00:44:52;16.90;13.10;11.40
42002;PMS7003;27693;50.506;30.832;2023-05-01T00:45:56;14.90;12.30;10.50
42002;PMS7003;27693;50.506;30.832;2023-05-01T00:47:00;21.90;15.90;11.60
42002;PMS7003;27693;50.506;30.832;2023-05-01T00:48:03;23.50;17.50;12.90
42002;PMS7003;27693;50.506;30.832;2023-05-01T00:49:06;20.20;14.60;11.40
42002;PMS7003;27693;50.506;30.832;2023-05-01T00:50:09;21.40;18.20;13.80
42002;PMS7003;27693;50.506;30.832;2023-05-01T00:51:13;19.70;17.50;12.60
42002;PMS7003;27693;50.506;30.832;2023-05-01T00:52:15;23.20;15.90;12.20
42002;PMS7003;27693;50.506;30.832;2023-05-01T00:53:18;21.30;17.50;13.10
42002;PMS7003;27693;50.506;30.832;2023-05-01T00:54:22;27.20;18.20;12.70
42002;PMS7003;27693;50.506;30.832;2023-05-01T00:55:27;24.00;18.10;13.20
42002;PMS7003;27693;50.506;30.832;2023-05-01T00:56:33;17.60;15.30;11.20
42002;PMS7003;27693;50.506;30.832;2023-05-01T00:57:36;26.20;22.40;16.40
42002;PMS7003;27693;50.506;30.832;2023-05-01T00:58:38;26.18;20.64;14.73
42002;PMS7003;27693;50.506;30.832;2023-05-01T00:59:41;24.10;21.40;16.20
42002;PMS7003;27693;50.506;30.832;2023-05-01T01:00:44;26.18;19.64;15.18
42002;PMS7003;27693;50.506;30.832;2023-05-01T01:01:48;30.60;25.60;17.50
42002;PMS7003;27693;50.506;30.832;2023-05-01T01:02:51;22.20;19.30;15.30
42002;PMS7003;27693;50.506;30.832;2023-05-01T01:03:54;19.80;15.60;12.30
42002;PMS7003;27693;50.506;30.832;2023-05-01T01:04:57;20.10;18.10;13.80
42002;PMS7003;27693;50.506;30.832;2023-05-01T01:06:08;21.50;18.30;15.00
42002;PMS7003;27693;50.506;30.832;2023-05-01T01:07:31;26.70;22.20;16.40
42002;PMS7003;27693;50.506;30.832;2023-05-01T01:08:48;22.40;19.10;13.20
42002;PMS7003;27693;50.506;30.832;2023-05-01T01:10:26;18.50;16.40;11.80
42002;PMS7003;27693;50.506;30.832;2023-05-01T01:14:38;23.70;18.90;14.80
42002;PMS7003;27693;50.506;30.832;2023-05-01T01:17:16;28.70;23.00;17.90
42002;PMS7003;27693;50.506;30.832;2023-05-01T01:21:37;18.30;16.00;13.10
42002;PMS7003;27693;50.506;30.832;2023-05-01T01:22:22;20.10;14.70;11.00
42002;PMS7003;27693;50.506;30.832;2023-05-01T01:26:02;21.10;19.30;13.40
42002;PMS7003;27693;50.506;30.832;2023-05-01T01:27:34;16.70;14.80;12.50
42002;PMS7003;27693;50.506;30.832;2023-05-01T01:30:30;20.20;13.70;10.60
42002;PMS7003;27693;50.506;30.832;2023-05-01T01:31:32;16.90;14.70;11.70
42002;PMS7003;27693;50.506;30.832;2023-05-01T01:33:07;12.00;9.80;6.70
42002;PMS7003;27693;50.506;30.832;2023-05-01T01:34:19;14.30;8.20;5.20
42002;PMS7003;27693;50.506;30.832;2023-05-01T01:35:25;13.80;13.50;9.80
42002;PMS7003;27693;50.506;30.832;2023-05-01T01:38:00;20.00;15.30;11.90
42002;PMS7003;27693;50.506;30.832;2023-05-01T01:40:16;18.20;14.90;11.60
42002;PMS7003;27693;50.506;30.832;2023-05-01T01:41:23;14.40;13.70;10.60
42002;PMS7003;27693;50.506;30.832;2023-05-01T01:42:29;13.20;12.60;9.50
42002;PMS7003;27693;50.506;30.832;2023-05-01T01:43:42;17.10;15.20;12.20
42002;PMS7003;27693;50.506;30.832;2023-05-01T01:44:51;17.60;12.70;8.80
42002;PMS7003;27693;50.506;30.832;2023-05-01T01:45:58;17.10;14.90;11.00
42002;PMS7003;27693;50.506;30.832;2023-05-01T01:47:04;16.80;13.30;9.90
42002;PMS7003;27693;50.506;30.832;2023-05-01T01:48:10;18.90;16.50;12.50
42002;PMS7003;27693;50.506;30.832;2023-05-01T01:49:22;16.80;11.30;8.00
42002;PMS7003;27693;50.506;30.832;2023-05-01T01:50:28;14.50;11.40;9.40
42002;PMS7003;27693;50.506;30.832;2023-05-01T01:51:32;16.60;14.50;10.60
42002;PMS7003;27693;50.506;30.832;2023-05-01T01:52:39;7.20;5.10;3.20
42002;PMS7003;27693;50.506;30.832;2023-05-01T01:53:44;15.90;13.50;8.60
42002;PMS7003;27693;50.506;30.832;2023-05-01T01:54:50;16.90;13.70;10.10
42002;PMS7003;27693;50.506;30.832;2023-05-01T01:55:55;14.70;12.60;10.30
42002;PMS7003;27693;50.506;30.832;2023-05-01T01:57:02;15.50;13.70;10.40
42002;PMS7003;27693;50.506;30.832;2023-05-01T01:58:08;15.40;13.80;10.30
42002;PMS7003;27693;50.506;30.832;2023-05-01T01:59:14;14.70;12.40;10.30
42002;PMS7003;27693;50.506;30.832;2023-05-01T02:00:18;16.40;12.30;9.00
42002;PMS7003;27693;50.506;30.832;2023-05-01T02:01:23;13.50;10.40;9.50
42002;PMS7003;27693;50.506;30.832;2023-05-01T02:02:27;13.40;11.70;9.20
42002;PMS7003;27693;50.506;30.832;2023-05-01T02:03:32;13.80;10.80;6.90
42002;PMS7003;27693;50.506;30.832;2023-05-01T02:04:36;13.70;12.40;9.70
42002;PMS7003;27693;50.506;30.832;2023-05-01T02:05:41;12.40;11.50;8.50
42002;PMS7003;27693;50.506;30.832;2023-05-01T02:06:46;11.90;10.00;7.80
42002;PMS7003;27693;50.506;30.832;2023-05-01T02:07:50;11.20;10.80;8.60
42002;PMS7003;27693;50.506;30.832;2023-05-01T02:08:55;10.60;9.00;7.10
42002;PMS7003;27693;50.506;30.832;2023-05-01T02:09:59;13.70;10.60;7.50
42002;PMS7003;27693;50.506;30.832;2023-05-01T02:11:04;7.50;6.00;4.80
42002;PMS7003;27693;50.506;30.832;2023-05-01T02:12:07;9.09;7.64;6.73
42002;PMS7003;27693;50.506;30.832;2023-05-01T02:13:12;12.30;9.30;7.00
42002;PMS7003;27693;50.506;30.832;2023-05-01T02:14:17;9.40;9.40;8.00
42002;PMS7003;27693;50.506;30.832;2023-05-01T02:15:21;9.30;8.70;6.60
42002;PMS7003;27693;50.506;30.832;2023-05-01T02:16:25;9.00;9.00;7.20
42002;PMS7003;27693;50.506;30.832;2023-05-01T02:17:28;11.50;8.20;6.60
42002;PMS7003;27693;50.506;30.832;2023-05-01T02:18:33;14.90;10.50;7.70
42002;PMS7003;27693;50.506;30.832;2023-05-01T02:19:37;11.20;8.90;6.40
42002;PMS7003;27693;50.506;30.832;2023-05-01T02:20:43;8.10;7.50;5.90
42002;PMS7003;27693;50.506;30.832;2023-05-01T02:21:48;9.40;9.40;7.10
42002;PMS7003;27693;50.506;30.832;2023-05-01T02:22:51;8.80;8.50;6.70
42002;PMS7003;27693;50.506;30.832;2023-05-01T02:23:54;11.70;7.50;6.20
42002;PMS7003;27693;50.506;30.832;2023-05-01T02:24:59;8.00;8.00;6.10
42002;PMS7003;27693;50.506;30.832;2023-05-01T02:26:02;10.20;9.40;7.20
42002;PMS7003;27693;50.506;30.832;2023-05-01T02:27:07;11.60;10.10;7.00
42002;PMS7003;27693;50.506;30.832;2023-05-01T02:28:25;13.10;10.20;8.20
42002;PMS7003;27693;50.506;30.832;2023-05-01T02:29:29;13.60;11.50;8.20
42002;PMS7003;27693;50.506;30.832;2023-05-01T02:30:32;10.90;10.20;8.20
42002;PMS7003;27693;50.506;30.832;2023-05-01T02:31:35;9.10;7.40;4.70
42002;PMS7003;27693;50.506;30.832;2023-05-01T02:32:38;12.70;11.30;8.30
42002;PMS7003;27693;50.506;30.832;2023-05-01T02:33:41;10.80;8.90;7.40
42002;PMS7003;27693;50.506;30.832;2023-05-01T02:34:43;10.10;7.00;5.90
42002;PMS7003;27693;50.506;30.832;2023-05-01T02:35:46;12.10;10.20;7.70
42002;PMS7003;27693;50.506;30.832;2023-05-01T02:36:50;14.20;9.40;7.30
42002;PMS7003;27693;50.506;30.832;2023-05-01T02:37:53;9.18;6.91;6.09
42002;PMS7003;27693;50.506;30.832;2023-05-01T02:38:56;14.70;10.80;7.70
42002;PMS7003;27693;50.506;30.832;2023-05-01T02:39:58;9.40;6.40;5.80
42002;PMS7003;27693;50.506;30.832;2023-05-01T02:41:01;12.70;11.10;8.20
42002;PMS7003;27693;50.506;30.832;2023-05-01T02:42:05;9.10;5.80;4.20
42002;PMS7003;27693;50.506;30.832;2023-05-01T02:43:15;9.70;7.10;6.30
42002;PMS7003;27693;50.506;30.832;2023-05-01T02:44:19;11.90;9.70;7.50
42002;PMS7003;27693;50.506;30.832;2023-05-01T02:45:25;10.00;7.10;6.10
42002;PMS7003;27693;50.506;30.832;2023-05-01T02:46:32;9.70;8.90;7.10
42002;PMS7003;27693;50.506;30.832;2023-05-01T02:47:38;7.90;5.80;4.40
42002;PMS7003;27693;50.506;30.832;2023-05-01T02:48:44;7.40;6.90;5.90
42002;PMS7003;27693;50.506;30.832;2023-05-01T02:49:50;8.20;8.20;6.50
42002;PMS7003;27693;50.506;30.832;2023-05-01T02:50:53;9.00;7.40;6.60
42002;PMS7003;27693;50.506;30.832;2023-05-01T02:51:58;12.20;8.10;6.40
42002;PMS7003;27693;50.506;30.832;2023-05-01T02:53:01;10.70;8.40;7.30
42002;PMS7003;27693;50.506;30.832;2023-05-01T02:54:06;6.20;5.60;5.40
42002;PMS7003;27693;50.506;30.832;2023-05-01T02:55:09;9.20;7.70;6.60
42002;PMS7003;27693;50.506;30.832;2023-05-01T02:56:12;5.90;5.40;4.20
42002;PMS7003;27693;50.506;30.832;2023-05-01T02:57:16;10.80;8.30;5.90
42002;PMS7003;27693;50.506;30.832;2023-05-01T02:58:21;10.90;7.40;6.00
42002;PMS7003;27693;50.506;30.832;2023-05-01T02:59:24;10.90;8.00;6.40
42002;PMS7003;27693;50.506;30.832;2023-05-01T03:00:26;8.36;7.09;6.27
42002;PMS7003;27693;50.506;30.832;2023-05-01T03:01:29;11.10;7.90;6.80
42002;PMS7003;27693;50.506;30.832;2023-05-01T03:02:31;10.20;7.70;6.80
42002;PMS7003;27693;50.506;30.832;2023-05-01T03:03:34;7.18;6.36;4.82
42002;PMS7003;27693;50.506;30.832;2023-05-01T03:04:36;12.60;8.20;6.60
42002;PMS7003;27693;50.506;30.832;2023-05-01T03:05:39;8.90;8.20;6.70
42002;PMS7003;27693;50.506;30.832;2023-05-01T03:06:43;8.00;6.80;5.70
42002;PMS7003;27693;50.506;30.832;2023-05-01T03:07:47;13.00;8.00;6.20
42002;PMS7003;27693;50.506;30.832;2023-05-01T03:08:50;9.30;7.40;5.70
42002;PMS7003;27693;50.506;30.832;2023-05-01T03:09:52;7.70;6.10;4.30
42002;PMS7003;27693;50.506;30.832;2023-05-01T03:10:55;9.60;9.10;7.80
42002;PMS7003;27693;50.506;30.832;2023-05-01T03:11:57;7.60;7.50;6.60
42002;PMS7003;27693;50.506;30.832;2023-05-01T03:13:00;8.80;8.00;5.80
42002;PMS7003;27693;50.506;30.832;2023-05-01T03:14:02;10.90;8.00;6.10
42002;PMS7003;27693;50.506;30.832;2023-05-01T03:15:05;8.60;6.60;5.60
42002;PMS7003;27693;50.506;30.832;2023-05-01T03:16:08;8.40;8.30;6.80
42002;PMS7003;27693;50.506;30.832;2023-05-01T03:17:10;8.00;6.70;5.90
42002;PMS7003;27693;50.506;30.832;2023-05-01T03:18:13;9.09;8.27;6.73
42002;PMS7003;27693;50.506;30.832;2023-05-01T03:19:15;12.50;8.60;6.30
42002;PMS7003;27693;50.506;30.832;2023-05-01T03:20:18;10.20;8.20;7.00
42002;PMS7003;27693;50.506;30.832;2023-05-01T03:21:21;8.00;7.30;5.60
42002;PMS7003;27693;50.506;30.832;2023-05-01T03:22:23;9.50;7.70;6.20
42002;PMS7003;27693;50.506;30.832;2023-05-01T03:23:26;15.18;10.45;8.18
42002;PMS7003;27693;50.506;30.832;2023-05-01T03:24:29;11.00;8.90;7.50
42002;PMS7003;27693;50.506;30.832;2023-05-01T03:25:32;12.70;11.60;8.70
42002;PMS7003;27693;50.506;30.832;2023-05-01T03:26:34;8.10;7.80;5.60
42002;PMS7003;27693;50.506;30.832;2023-05-01T03:27:36;14.70;8.90;7.80
42002;PMS7003;27693;50.506;30.832;2023-05-01T03:28:39;14.70;12.10;7.90
42002;PMS7003;27693;50.506;30.832;2023-05-01T03:29:41;14.20;11.50;8.30
42002;PMS7003;27693;50.506;30.832;2023-05-01T03:30:43;13.20;9.40;7.70
42002;PMS7003;27693;50.506;30.832;2023-05-01T03:31:47;14.40;10.60;8.00
42002;PMS7003;27693;50.506;30.832;2023-05-01T03:32:51;9.60;8.00;7.20
42002;PMS7003;27693;50.506;30.832;2023-05-01T03:33:55;11.50;8.80;7.10
42002;PMS7003;27693;50.506;30.832;2023-05-01T03:34:58;13.00;9.60;8.00
42002;PMS7003;27693;50.506;30.832;2023-05-01T03:36:01;10.40;9.70;7.40
42002;PMS7003;27693;50.506;30.832;2023-05-01T03:37:05;11.50;9.40;7.70
42002;PMS7003;27693;50.506;30.832;2023-05-01T03:38:08;9.80;7.40;6.60
42002;PMS7003;27693;50.506;30.832;2023-05-01T03:39:15;11.60;7.90;6.50
42002;PMS7003;27693;50.506;30.832;2023-05-01T03:40:23;9.40;7.40;6.00
42002;PMS7003;27693;50.506;30.832;2023-05-01T03:41:31;5.80;5.10;4.00
42002;PMS7003;27693;50.506;30.832;2023-05-01T03:42:38;9.50;7.20;5.90
42002;PMS7003;27693;50.506;30.832;2023-05-01T03:43:42;9.80;7.80;6.50
42002;PMS7003;27693;50.506;30.832;2023-05-01T03:44:52;5.50;5.00;4.30
42002;PMS7003;27693;50.506;30.832;2023-05-01T03:45:55;8.40;6.10;4.50
42002;PMS7003;27693;50.506;30.832;2023-05-01T03:46:58;8.50;6.70;5.20
42002;PMS7003;27693;50.506;30.832;2023-05-01T03:48:02;9.40;7.10;6.30
42002;PMS7003;27693;50.506;30.832;2023-05-01T03:49:05;7.50;6.30;5.30
42002;PMS7003;27693;50.506;30.832;2023-05-01T03:50:10;8.10;5.80;4.20
42002;PMS7003;27693;50.506;30.832;2023-05-01T03:51:15;8.60;5.90;4.60
42002;PMS7003;27693;50.506;30.832;2023-05-01T03:52:19;4.00;4.00;3.70
42002;PMS7003;27693;50.506;30.832;2023-05-01T03:53:21;7.30;6.20;5.00
42002;PMS7003;27693;50.506;30.832;2023-05-01T03:54:25;5.80;4.20;3.20
42002;PMS7003;27693;50.506;30.832;2023-05-01T03:55:32;9.60;6.20;5.30
42002;PMS7003;27693;50.506;30.832;2023-05-01T03:56:35;7.00;4.40;4.00
42002;PMS7003;27693;50.506;30.832;2023-05-01T03:57:39;7.60;5.90;5.00
42002;PMS7003;27693;50.506;30.832;2023-05-01T03:58:42;5.90;5.80;4.50
42002;PMS7003;27693;50.506;30.832;2023-05-01T03:59:45;7.50;6.50;5.40
42002;PMS7003;27693;50.506;30.832;2023-05-01T04:00:48;6.20;5.80;4.80
42002;PMS7003;27693;50.506;30.832;2023-05-01T04:01:52;5.60;3.90;3.40
42002;PMS7003;27693;50.506;30.832;2023-05-01T04:02:55;3.90;3.10;2.20
42002;PMS7003;27693;50.506;30.832;2023-05-01T04:03:58;6.40;5.20;4.80
42002;PMS7003;27693;50.506;30.832;2023-05-01T04:05:03;8.30;7.40;6.20
42002;PMS7003;27693;50.506;30.832;2023-05-01T04:06:06;7.90;6.30;5.00
42002;PMS7003;27693;50.506;30.832;2023-05-01T04:07:09;7.45;5.82;4.82
42002;PMS7003;27693;50.506;30.832;2023-05-01T04:08:12;4.50;4.00;3.00
42002;PMS7003;27693;50.506;30.832;2023-05-01T04:09:15;6.64;5.09;4.09
42002;PMS7003;27693;50.506;30.832;2023-05-01T04:10:17;7.00;5.70;4.60
42002;PMS7003;27693;50.506;30.832;2023-05-01T04:11:31;7.10;5.90;5.00
42002;PMS7003;27693;50.506;30.832;2023-05-01T04:12:34;6.80;6.70;5.90
42002;PMS7003;27693;50.506;30.832;2023-05-01T04:13:37;3.45;2.45;2.45
42002;PMS7003;27693;50.506;30.832;2023-05-01T04:14:39;6.70;5.90;4.40
42002;PMS7003;27693;50.506;30.832;2023-05-01T04:15:45;7.30;6.90;5.40
42002;PMS7003;27693;50.506;30.832;2023-05-01T04:16:48;4.30;3.00;2.60
42002;PMS7003;27693;50.506;30.832;2023-05-01T04:17:53;4.30;4.30;3.00
42002;PMS7003;27693;50.506;30.832;2023-05-01T04:18:57;6.70;4.70;4.00
42002;PMS7003;27693;50.506;30.832;2023-05-01T04:20:00;6.20;4.40;3.80
42002;PMS7003;27693;50.506;30.832;2023-05-01T04:21:02;3.40;2.20;2.00
42002;PMS7003;27693;50.506;30.832;2023-05-01T04:22:05;6.20;5.50;4.30
42002;PMS7003;27693;50.506;30.832;2023-05-01T04:23:08;9.10;5.90;5.10
42002;PMS7003;27693;50.506;30.832;2023-05-01T04:24:11;7.45;6.18;5.36
42002;PMS7003;27693;50.506;30.832;2023-05-01T04:25:14;5.80;5.50;4.00
42002;PMS7003;27693;50.506;30.832;2023-05-01T04:26:17;5.80;4.10;3.00
42002;PMS7003;27693;50.506;30.832;2023-05-01T04:27:20;3.60;1.60;1.30
42002;PMS7003;27693;50.506;30.832;2023-05-01T04:28:22;6.20;5.70;5.00
42002;PMS7003;27693;50.506;30.832;2023-05-01T04:29:24;3.50;2.00;1.30
42002;PMS7003;27693;50.506;30.832;2023-05-01T04:30:28;6.70;4.60;3.80
42002;PMS7003;27693;50.506;30.832;2023-05-01T04:31:32;4.10;2.70;2.00
42002;PMS7003;27693;50.506;30.832;2023-05-01T04:32:35;2.18;2.18;2.00
42002;PMS7003;27693;50.506;30.832;2023-05-01T04:33:38;5.30;4.30;3.90
42002;PMS7003;27693;50.506;30.832;2023-05-01T04:34:40;8.20;5.50;4.40
42002;PMS7003;27693;50.506;30.832;2023-05-01T04:35:42;6.80;4.40;3.30
42002;PMS7003;27693;50.506;30.832;2023-05-01T04:36:46;4.10;3.40;1.80
42002;PMS7003;27693;50.506;30.832;2023-05-01T04:37:50;4.30;2.70;2.20
42002;PMS7003;27693;50.506;30.832;2023-05-01T04:38:53;5.30;4.60;3.20
42002;PMS7003;27693;50.506;30.832;2023-05-01T04:39:55;5.50;4.70;4.30
42002;PMS7003;27693;50.506;30.832;2023-05-01T04:40:58;5.70;4.20;3.90
42002;PMS7003;27693;50.506;30.832;2023-05-01T04:42:02;5.45;4.45;3.45
42002;PMS7003;27693;50.506;30.832;2023-05-01T04:43:05;5.40;4.70;3.70
42002;PMS7003;27693;50.506;30.832;2023-05-01T04:44:08;3.70;3.60;3.50
42002;PMS7003;27693;50.506;30.832;2023-05-01T04:45:11;6.80;4.40;2.70
42002;PMS7003;27693;50.506;30.832;2023-05-01T04:46:14;9.30;7.50;3.80
42002;PMS7003;27693;50.506;30.832;2023-05-01T04:47:17;3.27;3.00;2.09
42002;PMS7003;27693;50.506;30.832;2023-05-01T04:48:19;8.30;4.50;3.80
42002;PMS7003;27693;50.506;30.832;2023-05-01T04:49:22;1.90;1.90;1.90
42002;PMS7003;27693;50.506;30.832;2023-05-01T04:50:24;3.70;2.80;1.90
42002;PMS7003;27693;50.506;30.832;2023-05-01T04:51:27;3.90;3.00;2.70
42002;PMS7003;27693;50.506;30.832;2023-05-01T04:52:30;3.30;2.00;1.60
42002;PMS7003;27693;50.506;30.832;2023-05-01T04:53:35;2.90;2.90;2.80
42002;PMS7003;27693;50.506;30.832;2023-05-01T04:54:38;4.55;3.64;3.09
42002;PMS7003;27693;50.506;30.832;2023-05-01T04:55:40;6.80;4.50;3.80
42002;PMS7003;27693;50.506;30.832;2023-05-01T04:56:46;3.50;3.50;3.30
42002;PMS7003;27693;50.506;30.832;2023-05-01T04:57:48;5.60;3.80;3.60
42002;PMS7003;27693;50.506;30.832;2023-05-01T04:58:50;3.20;3.00;2.50
42002;PMS7003;27693;50.506;30.832;2023-05-01T04:59:55;7.60;3.30;3.00
42002;PMS7003;27693;50.506;30.832;2023-05-01T05:00:58;4.50;2.70;2.20
42002;PMS7003;27693;50.506;30.832;2023-05-01T05:02:00;6.10;3.80;3.30
42002;PMS7003;27693;50.506;30.832;2023-05-01T05:03:04;4.40;3.10;2.00
42002;PMS7003;27693;50.506;30.832;2023-05-01T05:04:07;3.10;3.10;2.60
42002;PMS7003;27693;50.506;30.832;2023-05-01T05:05:10;2.64;2.64;2.18
42002;PMS7003;27693;50.506;30.832;2023-05-01T05:06:12;5.30;3.50;2.90
42002;PMS7003;27693;50.506;30.832;2023-05-01T05:07:15;2.90;2.40;2.30
42002;PMS7003;27693;50.506;30.832;2023-05-01T05:08:34;2.80;2.10;1.90
42002;PMS7003;27693;50.506;30.832;2023-05-01T05:09:45;2.40;2.40;2.00
42002;PMS7003;27693;50.506;30.832;2023-05-01T05:10:48;3.30;1.20;1.10
42002;PMS7003;27693;50.506;30.832;2023-05-01T05:12:05;5.40;2.10;1.10
42002;PMS7003;27693;50.506;30.832;2023-05-01T05:13:08;7.30;5.80;4.40
42002;PMS7003;27693;50.506;30.832;2023-05-01T05:14:20;6.30;4.40;4.00
42002;PMS7003;27693;50.506;30.832;2023-05-01T05:15:23;6.73;4.36;3.82
42002;PMS7003;27693;50.506;30.832;2023-05-01T05:16:26;2.60;2.10;1.40
42002;PMS7003;27693;50.506;30.832;2023-05-01T05:17:29;3.60;3.10;2.80
42002;PMS7003;27693;50.506;30.832;2023-05-01T05:18:32;5.00;3.40;3.00
42002;PMS7003;27693;50.506;30.832;2023-05-01T05:19:35;6.64;3.73;2.73
42002;PMS7003;27693;50.506;30.832;2023-05-01T05:20:37;2.70;2.30;2.00
42002;PMS7003;27693;50.506;30.832;2023-05-01T05:21:43;5.00;3.80;3.00
42002;PMS7003;27693;50.506;30.832;2023-05-01T05:22:45;3.20;3.00;2.20
42002;PMS7003;27693;50.506;30.832;2023-05-01T05:23:53;2.40;1.70;0.50
42002;PMS7003;27693;50.506;30.832;2023-05-01T05:24:55;6.50;5.10;4.00
42002;PMS7003;27693;50.506;30.832;2023-05-01T05:26:00;3.70;2.00;2.00
42002;PMS7003;27693;50.506;30.832;2023-05-01T05:27:02;6.50;4.70;3.50
42002;PMS7003;27693;50.506;30.832;2023-05-01T05:28:05;5.70;3.00;2.80
42002;PMS7003;27693;50.506;30.832;2023-05-01T05:29:07;4.10;2.80;2.20
42002;PMS7003;27693;50.506;30.832;2023-05-01T05:30:10;7.30;3.00;2.50
42002;PMS7003;27693;50.506;30.832;2023-05-01T05:31:13;3.10;1.50;1.30
42002;PMS7003;27693;50.506;30.832;2023-05-01T05:32:15;7.10;3.10;2.20
42002;PMS7003;27693;50.506;30.832;2023-05-01T05:33:18;2.80;2.80;2.50
42002;PMS7003;27693;50.506;30.832;2023-05-01T05:34:21;6.00;4.70;3.00
42002;PMS7003;27693;50.506;30.832;2023-05-01T05:35:24;3.20;2.60;2.00
42002;PMS7003;27693;50.506;30.832;2023-05-01T05:36:27;2.00;1.00;0.60
42002;PMS7003;27693;50.506;30.832;2023-05-01T05:37:31;4.30;3.20;2.70
42002;PMS7003;27693;50.506;30.832;2023-05-01T05:38:35;3.40;2.70;2.50
42002;PMS7003;27693;50.506;30.832;2023-05-01T05:39:38;9.30;5.20;4.60
42002;PMS7003;27693;50.506;30.832;2023-05-01T05:40:41;1.50;1.50;1.50
42002;PMS7003;27693;50.506;30.832;2023-05-01T05:41:46;3.60;3.60;2.80
42002;PMS7003;27693;50.506;30.832;2023-05-01T05:42:49;3.40;2.80;2.10
42002;PMS7003;27693;50.506;30.832;2023-05-01T05:43:53;7.60;4.40;2.80
42002;PMS7003;27693;50.506;30.832;2023-05-01T05:44:56;7.50;3.70;2.70
42002;PMS7003;27693;50.506;30.832;2023-05-01T05:45:59;5.70;3.30;2.50
42002;PMS7003;27693;50.506;30.832;2023-05-01T05:47:02;5.80;3.30;3.00
42002;PMS7003;27693;50.506;30.832;2023-05-01T05:48:05;3.70;3.30;2.50
42002;PMS7003;27693;50.506;30.832;2023-05-01T05:49:10;3.80;3.40;2.30
42002;PMS7003;27693;50.506;30.832;2023-05-01T05:50:14;2.20;1.20;1.00
42002;PMS7003;27693;50.506;30.832;2023-05-01T05:51:18;2.90;1.70;1.70
42002;PMS7003;27693;50.506;30.832;2023-05-01T05:52:20;5.60;2.50;2.20
42002;PMS7003;27693;50.506;30.832;2023-05-01T05:53:23;6.00;3.30;2.40
42002;PMS7003;27693;50.506;30.832;2023-05-01T05:54:27;5.10;2.20;1.70
42002;PMS7003;27693;50.506;30.832;2023-05-01T05:55:31;4.20;1.40;0.80
42002;PMS7003;27693;50.506;30.832;2023-05-01T05:56:35;4.90;2.00;1.80
42002;PMS7003;27693;50.506;30.832;2023-05-01T05:57:38;2.10;1.70;1.00
42002;PMS7003;27693;50.506;30.832;2023-05-01T05:58:40;1.30;0.70;0.50
42002;PMS7003;27693;50.506;30.832;2023-05-01T05:59:43;2.10;2.10;2.00
42002;PMS7003;27693;50.506;30.832;2023-05-01T06:00:50;3.00;2.50;1.70
42002;PMS7003;27693;50.506;30.832;2023-05-01T06:01:57;2.60;1.90;1.60
42002;PMS7003;27693;50.506;30.832;2023-05-01T06:03:01;2.90;2.00;1.10
42002;PMS7003;27693;50.506;30.832;2023-05-01T06:04:05;5.50;2.90;2.60
42002;PMS7003;27693;50.506;30.832;2023-05-01T06:05:09;5.20;3.40;3.00
42002;PMS7003;27693;50.506;30.832;2023-05-01T06:06:12;3.20;2.00;1.50
42002;PMS7003;27693;50.506;30.832;2023-05-01T06:07:15;2.40;2.40;1.50
42002;PMS7003;27693;50.506;30.832;2023-05-01T06:08:18;3.20;3.20;2.50
42002;PMS7003;27693;50.506;30.832;2023-05-01T06:09:20;3.60;3.00;2.30
42002;PMS7003;27693;50.506;30.832;2023-05-01T06:10:22;2.90;2.50;2.20
42002;PMS7003;27693;50.506;30.832;2023-05-01T06:11:26;5.30;2.00;1.90
42002;PMS7003;27693;50.506;30.832;2023-05-01T06:12:28;2.40;2.10;1.90
42002;PMS7003;27693;50.506;30.832;2023-05-01T06:13:33;5.30;2.30;1.70
42002;PMS7003;27693;50.506;30.832;2023-05-01T06:14:37;2.10;1.80;1.60
42002;PMS7003;27693;50.506;30.832;2023-05-01T06:15:39;2.20;1.30;1.00
42002;PMS7003;27693;50.506;30.832;2023-05-01T06:16:43;5.80;3.50;2.30
42002;PMS7003;27693;50.506;30.832;2023-05-01T06:17:46;4.30;1.90;1.70
42002;PMS7003;27693;50.506;30.832;2023-05-01T06:18:49;2.90;2.90;2.70
42002;PMS7003;27693;50.506;30.832;2023-05-01T06:19:52;3.82;2.00;1.91
42002;PMS7003;27693;50.506;30.832;2023-05-01T06:20:56;6.00;2.70;2.20
42002;PMS7003;27693;50.506;30.832;2023-05-01T06:21:59;3.10;2.80;2.20